Terminal Aerodrome Forecast
Issued by NWS Jackson, KY

Home | Current Version | Previous Version | Text Only | Print | Product List | Glossary On
Versions: 1 2 3 4 5 6 7 8 9 10 11 12 13 14 15 16 17 18 19 20 21
000
FTUS43 KJKL 271400 AAD
TAFJKL
TAF AMD
KJKL 271416Z 2714/2812 32004KT 5SM -SN BR BKN008 OVC020
     FM271500 30006KT P6SM OVC030
     FM280600 29006KT P6SM BKN035=

USA.gov is the U.S. government's official web portal to all federal, state and local government web resources and services.